createdAt,value
2022-12-20T00:00:05.578Z,29.5810
2022-12-20T00:00:16.735Z,29.5860
2022-12-20T00:00:27.821Z,29.5770
2022-12-20T00:00:38.921Z,29.5770
2022-12-20T00:00:50.032Z,29.5660
2022-12-20T00:01:01.115Z,29.5580
2022-12-20T00:01:12.211Z,29.5520
2022-12-20T00:01:23.414Z,29.5580
2022-12-20T00:01:34.558Z,29.5630
2022-12-20T00:01:45.848Z,29.5520
2022-12-20T00:01:57.182Z,29.5520
2022-12-20T00:02:08.693Z,29.5740
2022-12-20T00:02:20.203Z,29.5860
2022-12-20T00:02:31.445Z,29.5690
2022-12-20T00:02:42.653Z,29.5810
2022-12-20T00:02:53.747Z,29.5690
2022-12-20T00:03:04.871Z,29.5710
2022-12-20T00:03:16.127Z,29.5870
2022-12-20T00:03:27.178Z,29.5630
2022-12-20T00:03:38.273Z,29.5210
2022-12-20T00:03:49.350Z,29.5100
2022-12-20T00:04:00.539Z,29.5040
2022-12-20T00:04:11.724Z,29.5260
2022-12-20T00:04:22.776Z,29.5260
2022-12-20T00:04:33.812Z,29.5260
2022-12-20T00:04:44.874Z,29.5520
2022-12-20T00:04:55.966Z,29.5520
2022-12-20T00:05:07.060Z,29.5660
2022-12-20T00:05:18.271Z,29.5610
2022-12-20T00:05:29.468Z,29.5660
2022-12-20T00:05:40.660Z,29.5320
2022-12-20T00:05:51.726Z,29.5160
2022-12-20T00:06:02.800Z,29.5500
2022-12-20T00:06:13.927Z,29.5660
2022-12-20T00:06:25.151Z,29.5820
2022-12-20T00:06:36.332Z,29.5880
2022-12-20T00:06:47.385Z,29.5720
2022-12-20T00:06:58.444Z,29.5550
2022-12-20T00:07:09.623Z,29.5660
2022-12-20T00:07:20.692Z,29.5500
2022-12-20T00:07:31.932Z,29.5320
2022-12-20T00:07:43.091Z,29.5320
2022-12-20T00:07:54.302Z,29.5550
2022-12-20T00:08:05.345Z,29.5500
2022-12-20T00:08:16.442Z,29.5660
2022-12-20T00:08:27.552Z,29.5660
2022-12-20T00:08:38.684Z,29.5550
2022-12-20T00:08:49.786Z,29.5430
2022-12-20T00:09:01.010Z,29.5430
2022-12-20T00:09:12.189Z,29.5120
2022-12-20T00:09:23.378Z,29.5070
2022-12-20T00:09:34.431Z,29.4800
2022-12-20T00:09:45.481Z,29.4640
2022-12-20T00:09:56.643Z,29.4420
2022-12-20T00:10:07.694Z,29.4420
2022-12-20T00:10:18.756Z,29.4370
2022-12-20T00:10:29.926Z,29.4310
2022-12-20T00:10:41.108Z,29.4310
2022-12-20T00:10:52.227Z,29.4230
2022-12-20T00:11:03.430Z,29.4230
2022-12-20T00:11:14.652Z,29.4130
2022-12-20T00:11:25.830Z,29.3960
2022-12-20T00:11:36.868Z,29.3750
2022-12-20T00:11:47.933Z,29.3700
2022-12-20T00:11:58.994Z,29.3570
2022-12-20T00:12:10.097Z,29.3470
2022-12-20T00:12:21.182Z,29.3360
2022-12-20T00:12:32.222Z,29.3140
2022-12-20T00:12:43.285Z,29.3250
2022-12-20T00:12:54.353Z,29.3140
2022-12-20T00:13:05.397Z,29.3030
2022-12-20T00:13:16.472Z,29.3030
2022-12-20T00:13:27.542Z,29.2930
2022-12-20T00:13:38.670Z,29.2930
2022-12-20T00:13:49.732Z,29.2770
2022-12-20T00:14:00.813Z,29.2710
2022-12-20T00:14:11.892Z,29.2540
2022-12-20T00:14:22.979Z,29.2380
2022-12-20T00:14:34.080Z,29.2490
2022-12-20T00:14:45.254Z,29.2490
2022-12-20T00:14:56.330Z,29.2490
2022-12-20T00:15:07.489Z,29.2430
2022-12-20T00:15:18.595Z,29.2270
2022-12-20T00:15:29.706Z,29.2060
2022-12-20T00:15:40.817Z,29.1890
2022-12-20T00:15:51.927Z,29.1890
2022-12-20T00:16:03.033Z,29.1610
2022-12-20T00:16:14.079Z,29.1400
2022-12-20T00:16:25.227Z,29.1180
2022-12-20T00:16:36.269Z,29.0970
2022-12-20T00:16:47.413Z,29.0860
2022-12-20T00:16:58.450Z,29.0740
2022-12-20T00:17:09.508Z,29.0580
2022-12-20T00:17:20.766Z,29.0410
2022-12-20T00:17:31.906Z,29.0410
2022-12-20T00:17:43.180Z,29.0470
2022-12-20T00:17:54.415Z,29.0290
2022-12-20T00:18:05.590Z,29.0310
2022-12-20T00:18:16.695Z,29.0040
2022-12-20T00:18:27.904Z,28.9930
2022-12-20T00:18:39.082Z,28.9760
2022-12-20T00:18:50.141Z,28.9800
2022-12-20T00:19:01.220Z,28.9740
2022-12-20T00:19:12.416Z,28.9900
2022-12-20T00:19:23.551Z,28.9740
2022-12-20T00:19:34.779Z,28.9800
2022-12-20T00:19:45.837Z,28.9900
2022-12-20T00:19:56.910Z,28.9640
2022-12-20T00:20:08.076Z,28.9370
2022-12-20T00:20:19.142Z,28.9640
2022-12-20T00:20:30.222Z,28.9420
2022-12-20T00:20:41.273Z,28.9420
2022-12-20T00:20:52.352Z,28.9250
2022-12-20T00:21:03.432Z,28.9090
2022-12-20T00:21:14.504Z,28.9030
2022-12-20T00:21:25.555Z,28.9140
2022-12-20T00:21:36.715Z,28.8980
2022-12-20T00:21:47.914Z,28.8980
2022-12-20T00:21:59.103Z,28.8940
2022-12-20T00:22:10.312Z,28.8890
2022-12-20T00:22:21.434Z,28.8940
2022-12-20T00:22:32.484Z,28.8890
2022-12-20T00:22:43.599Z,28.8780
2022-12-20T00:22:54.801Z,28.8620
2022-12-20T00:23:05.858Z,28.8670
2022-12-20T00:23:16.924Z,28.8560
2022-12-20T00:23:27.979Z,28.8510
2022-12-20T00:23:39.141Z,28.8460
2022-12-20T00:23:50.203Z,28.8620
2022-12-20T00:24:01.291Z,28.8510
2022-12-20T00:24:12.417Z,28.8350
2022-12-20T00:24:26.405Z,28.8560
2022-12-20T00:24:37.717Z,28.9270
2022-12-20T00:24:48.900Z,28.8930
2022-12-20T00:25:00.136Z,28.8830
2022-12-20T00:25:11.310Z,28.8670
2022-12-20T00:25:22.508Z,28.8620
2022-12-20T00:25:33.711Z,28.8510
2022-12-20T00:25:44.912Z,28.8510
2022-12-20T00:25:55.982Z,28.8350
2022-12-20T00:26:07.076Z,28.8300
2022-12-20T00:26:18.203Z,28.8240
2022-12-20T00:26:29.391Z,28.8080
2022-12-20T00:26:40.627Z,28.8190
2022-12-20T00:26:51.778Z,28.8130
2022-12-20T00:27:02.826Z,28.8130
2022-12-20T00:27:13.903Z,28.8240
2022-12-20T00:27:25.066Z,28.8130
2022-12-20T00:27:36.132Z,28.8130
2022-12-20T00:27:47.199Z,28.8190
2022-12-20T00:27:58.300Z,28.8080
2022-12-20T00:28:09.342Z,28.7960
2022-12-20T00:28:20.420Z,28.7960
2022-12-20T00:28:31.553Z,28.7910
2022-12-20T00:28:43.224Z,28.7910
2022-12-20T00:28:54.281Z,28.8130
2022-12-20T00:29:05.363Z,28.8190
2022-12-20T00:29:16.443Z,28.8300
2022-12-20T00:29:27.588Z,28.8020
2022-12-20T00:29:38.647Z,28.8130
2022-12-20T00:29:49.741Z,28.8080
2022-12-20T00:30:00.854Z,28.8080
2022-12-20T00:30:12.042Z,28.8190
2022-12-20T00:30:23.245Z,28.8190
2022-12-20T00:30:34.444Z,28.8130
2022-12-20T00:30:45.499Z,28.8130
2022-12-20T00:30:56.577Z,28.8190
2022-12-20T00:31:07.700Z,28.8190
2022-12-20T00:31:18.906Z,28.8080
2022-12-20T00:31:30.264Z,28.8080
2022-12-20T00:31:41.694Z,28.8220
2022-12-20T00:31:53.003Z,28.8160
2022-12-20T00:32:04.120Z,28.8220
2022-12-20T00:32:15.213Z,28.8110
2022-12-20T00:32:26.400Z,28.8160
2022-12-20T00:32:37.612Z,28.8130
2022-12-20T00:32:48.684Z,28.8080
2022-12-20T00:32:59.760Z,28.8130
2022-12-20T00:33:10.891Z,28.8080
2022-12-20T00:33:21.930Z,28.8080
2022-12-20T00:33:33.001Z,28.8130
2022-12-20T00:33:44.175Z,28.8190
2022-12-20T00:33:55.373Z,28.8020
2022-12-20T00:34:06.576Z,28.8190
2022-12-20T00:34:17.622Z,28.8160
2022-12-20T00:34:28.720Z,28.8050
2022-12-20T00:34:39.854Z,28.8110
2022-12-20T00:34:51.082Z,28.8220
2022-12-20T00:35:02.267Z,28.8390
2022-12-20T00:35:13.477Z,28.8390
2022-12-20T00:35:24.682Z,28.8390
2022-12-20T00:35:35.896Z,28.8390
2022-12-20T00:35:47.089Z,28.8390
2022-12-20T00:35:58.299Z,28.8390
2022-12-20T00:36:09.478Z,28.8270
2022-12-20T00:36:20.711Z,28.8320
2022-12-20T00:36:31.786Z,28.8220
2022-12-20T00:36:42.860Z,28.8220
2022-12-20T00:36:53.948Z,28.8050
2022-12-20T00:37:04.984Z,28.8050
2022-12-20T00:37:16.048Z,28.8130
2022-12-20T00:37:27.136Z,28.8130
2022-12-20T00:37:38.212Z,28.8080
2022-12-20T00:37:49.323Z,28.8020
2022-12-20T00:38:00.427Z,28.7850
2022-12-20T00:38:11.516Z,28.7910
2022-12-20T00:38:22.582Z,28.7800
2022-12-20T00:38:33.716Z,28.7800
2022-12-20T00:38:44.919Z,28.7800
2022-12-20T00:38:55.994Z,28.7960
2022-12-20T00:39:07.048Z,28.7910
2022-12-20T00:39:18.108Z,28.7960
2022-12-20T00:39:29.340Z,28.7850
2022-12-20T00:39:40.406Z,28.7960
2022-12-20T00:39:51.497Z,28.7910
2022-12-20T00:40:02.603Z,28.7910
2022-12-20T00:40:13.760Z,28.8020
2022-12-20T00:40:24.996Z,28.8020
2022-12-20T00:40:36.192Z,28.7890
2022-12-20T00:40:47.395Z,28.8000
2022-12-20T00:40:58.468Z,28.7890
2022-12-20T00:41:09.554Z,28.8000
2022-12-20T00:41:20.686Z,28.7840
2022-12-20T00:41:31.872Z,28.8110
2022-12-20T00:41:43.073Z,28.8160
2022-12-20T00:41:54.273Z,28.8220
2022-12-20T00:42:05.484Z,28.8270
2022-12-20T00:42:16.700Z,28.8270
2022-12-20T00:42:27.874Z,28.8320
2022-12-20T00:42:39.079Z,28.8220
2022-12-20T00:42:50.261Z,28.8220
2022-12-20T00:43:01.327Z,28.8110
2022-12-20T00:43:12.396Z,28.8110
2022-12-20T00:43:23.553Z,28.8000
2022-12-20T00:43:34.753Z,28.8050
2022-12-20T00:43:45.956Z,28.8110
2022-12-20T00:43:57.159Z,28.8270
2022-12-20T00:44:08.222Z,28.8160
2022-12-20T00:44:19.455Z,28.8110
2022-12-20T00:44:30.565Z,28.8320
2022-12-20T00:44:41.618Z,28.8050
2022-12-20T00:44:52.699Z,28.8110
2022-12-20T00:45:03.768Z,28.8110
2022-12-20T00:45:14.952Z,28.8160
2022-12-20T00:45:26.143Z,28.8160
2022-12-20T00:45:37.367Z,28.8160
2022-12-20T00:45:48.449Z,28.8110
2022-12-20T00:45:59.652Z,28.8160
2022-12-20T00:46:10.847Z,28.8110
2022-12-20T00:46:22.132Z,28.8000
2022-12-20T00:46:33.359Z,28.8050
2022-12-20T00:46:44.508Z,28.8000
2022-12-20T00:46:55.630Z,28.8110
2022-12-20T00:47:06.785Z,28.8130
2022-12-20T00:47:17.988Z,28.8130
2022-12-20T00:47:29.095Z,28.8130
2022-12-20T00:47:40.269Z,28.8130
2022-12-20T00:47:51.482Z,28.8010
2022-12-20T00:48:02.685Z,28.8070
2022-12-20T00:48:13.889Z,28.8130
2022-12-20T00:48:24.955Z,28.8010
2022-12-20T00:48:36.027Z,28.8130
2022-12-20T00:48:47.173Z,28.7960
2022-12-20T00:48:58.364Z,28.7960
2022-12-20T00:49:09.577Z,28.8010
2022-12-20T00:49:20.770Z,28.7960
2022-12-20T00:49:32.018Z,28.7910
2022-12-20T00:49:43.166Z,28.7910
2022-12-20T00:49:54.377Z,28.7910
2022-12-20T00:50:05.563Z,28.7800
2022-12-20T00:50:16.756Z,28.7850
2022-12-20T00:50:27.959Z,28.7850
2022-12-20T00:50:39.025Z,28.7800
2022-12-20T00:50:50.089Z,28.7800
2022-12-20T00:51:01.169Z,28.7800
2022-12-20T00:51:12.202Z,28.7690
2022-12-20T00:51:23.415Z,28.7730
2022-12-20T00:51:34.609Z,28.7640
2022-12-20T00:51:45.821Z,28.7750
2022-12-20T00:51:56.995Z,28.7640
2022-12-20T00:52:08.196Z,28.7640
2022-12-20T00:52:19.273Z,28.7580
2022-12-20T00:52:30.340Z,28.7640
2022-12-20T00:52:41.486Z,28.7640
2022-12-20T00:52:52.695Z,28.7530
2022-12-20T00:53:03.765Z,28.7580
2022-12-20T00:53:14.853Z,28.7580
2022-12-20T00:53:26.627Z,28.7530
2022-12-20T00:53:37.946Z,28.7800
2022-12-20T00:53:48.997Z,28.7690
2022-12-20T00:54:00.102Z,28.7530
2022-12-20T00:54:11.143Z,28.7480
2022-12-20T00:54:22.434Z,28.7260
2022-12-20T00:54:33.551Z,28.7470
2022-12-20T00:54:44.742Z,28.7480
2022-12-20T00:54:55.847Z,28.7530
2022-12-20T00:55:06.924Z,28.7530
2022-12-20T00:55:18.016Z,28.7530
2022-12-20T00:55:29.285Z,28.7480
2022-12-20T00:55:40.489Z,28.7480
2022-12-20T00:55:51.676Z,28.7420
2022-12-20T00:56:02.883Z,28.7420
2022-12-20T00:56:14.083Z,28.7320
2022-12-20T00:56:25.905Z,28.7370
2022-12-20T00:56:37.472Z,28.7640
2022-12-20T00:56:48.637Z,28.7370
2022-12-20T00:56:59.712Z,28.7320
2022-12-20T00:57:10.761Z,28.7320
2022-12-20T00:57:21.935Z,28.7260
2022-12-20T00:57:32.993Z,28.7420
2022-12-20T00:57:44.049Z,28.7370
2022-12-20T00:57:55.281Z,28.7320
2022-12-20T00:58:06.458Z,28.7370
2022-12-20T00:58:17.525Z,28.7320
2022-12-20T00:58:28.653Z,28.7320
2022-12-20T00:58:39.812Z,28.7320
2022-12-20T00:58:51.023Z,28.7260
2022-12-20T00:59:02.159Z,28.7320
2022-12-20T00:59:13.423Z,28.7320
2022-12-20T00:59:24.576Z,28.7260
2022-12-20T00:59:35.801Z,28.7370
2022-12-20T00:59:47.002Z,28.7260
2022-12-20T00:59:58.174Z,28.7140
2022-12-20T01:00:09.387Z,28.7140
2022-12-20T01:00:20.583Z,28.7210
2022-12-20T01:00:31.775Z,28.7260
2022-12-20T01:00:43.035Z,28.7260
2022-12-20T01:00:56.917Z,28.7370
2022-12-20T01:01:08.673Z,28.8190
2022-12-20T01:01:19.894Z,28.7680
2022-12-20T01:01:31.688Z,28.7570
2022-12-20T01:01:43.447Z,28.7420
2022-12-20T01:01:54.897Z,28.7420
2022-12-20T01:02:06.378Z,28.7420
2022-12-20T01:02:17.862Z,28.7370
2022-12-20T01:02:29.571Z,28.7320
2022-12-20T01:02:40.946Z,28.7370
2022-12-20T01:02:52.570Z,28.7210
2022-12-20T01:03:04.075Z,28.7320
2022-12-20T01:03:15.554Z,28.7260
2022-12-20T01:03:27.100Z,28.7260
2022-12-20T01:03:38.357Z,28.7210
2022-12-20T01:03:49.669Z,28.6980
2022-12-20T01:04:00.780Z,28.6980
2022-12-20T01:04:11.862Z,28.6980
2022-12-20T01:04:22.973Z,28.6980
2022-12-20T01:04:34.044Z,28.6930
2022-12-20T01:04:45.316Z,28.6930
2022-12-20T01:04:56.450Z,28.6870
2022-12-20T01:05:07.680Z,28.6870
2022-12-20T01:05:18.848Z,28.6770
2022-12-20T01:05:30.070Z,28.6820
2022-12-20T01:05:41.263Z,28.6770
2022-12-20T01:05:52.470Z,28.6820
2022-12-20T01:06:03.650Z,28.6980
2022-12-20T01:06:14.863Z,28.6870
2022-12-20T01:06:26.059Z,28.6870
2022-12-20T01:06:37.262Z,28.6870
2022-12-20T01:06:48.333Z,28.6770
2022-12-20T01:06:59.408Z,28.6820
2022-12-20T01:07:10.543Z,28.6820
2022-12-20T01:07:21.609Z,28.6870
2022-12-20T01:07:32.749Z,28.6660
2022-12-20T01:07:43.809Z,28.6820
2022-12-20T01:07:54.887Z,28.6710
2022-12-20T01:08:05.968Z,28.6660
2022-12-20T01:08:17.084Z,28.6610
2022-12-20T01:08:28.123Z,28.6710
2022-12-20T01:08:39.195Z,28.6660
2022-12-20T01:08:50.369Z,28.6610
2022-12-20T01:09:01.422Z,28.6820
2022-12-20T01:09:12.506Z,28.6660
2022-12-20T01:09:23.672Z,28.6610
2022-12-20T01:09:34.728Z,28.6870
2022-12-20T01:09:45.830Z,28.6820
2022-12-20T01:09:56.962Z,28.6870
2022-12-20T01:10:07.990Z,28.6770
2022-12-20T01:10:19.066Z,28.6930
2022-12-20T01:10:30.222Z,28.6710
2022-12-20T01:10:41.280Z,28.6870
2022-12-20T01:10:52.345Z,28.6820
2022-12-20T01:11:03.528Z,28.6870
2022-12-20T01:11:14.610Z,28.6820
2022-12-20T01:11:25.697Z,28.6870
2022-12-20T01:11:36.791Z,28.6870
2022-12-20T01:11:47.849Z,28.6870
2022-12-20T01:11:58.966Z,28.6820
2022-12-20T01:12:10.053Z,28.6870
2022-12-20T01:12:21.126Z,28.6820
2022-12-20T01:12:32.204Z,28.6930
2022-12-20T01:12:43.342Z,28.6820
2022-12-20T01:12:54.542Z,28.6820
2022-12-20T01:13:05.723Z,28.6770
2022-12-20T01:13:16.927Z,28.6820
2022-12-20T01:13:28.163Z,28.6770
2022-12-20T01:13:39.198Z,28.6870
2022-12-20T01:13:50.282Z,28.6870
2022-12-20T01:14:01.439Z,28.6820
2022-12-20T01:14:12.611Z,28.6870
2022-12-20T01:14:23.811Z,28.6870
2022-12-20T01:14:35.052Z,28.6980
2022-12-20T01:14:46.224Z,28.7040
2022-12-20T01:14:57.443Z,28.6980
2022-12-20T01:15:08.613Z,28.6980
2022-12-20T01:15:19.773Z,28.6980
2022-12-20T01:15:30.832Z,28.6930
2022-12-20T01:15:41.898Z,28.6930
2022-12-20T01:15:53.106Z,28.6710
2022-12-20T01:16:04.343Z,28.6770
2022-12-20T01:16:15.563Z,28.6820
2022-12-20T01:16:26.849Z,28.6870
2022-12-20T01:16:38.031Z,28.6770
2022-12-20T01:16:49.202Z,28.6870
2022-12-20T01:17:00.368Z,28.6710
2022-12-20T01:17:11.499Z,28.6770
2022-12-20T01:17:22.548Z,28.6870
2022-12-20T01:17:33.618Z,28.6820
2022-12-20T01:17:44.779Z,28.7040
2022-12-20T01:17:55.839Z,28.6930
2022-12-20T01:18:06.915Z,28.6930
2022-12-20T01:18:18.046Z,28.6870
2022-12-20T01:18:29.105Z,28.6930
2022-12-20T01:18:40.229Z,28.6820
2022-12-20T01:18:51.379Z,28.6820
2022-12-20T01:19:02.631Z,28.6930
2022-12-20T01:19:13.790Z,28.6980
2022-12-20T01:19:25.023Z,28.6980
2022-12-20T01:19:36.188Z,28.6930
2022-12-20T01:19:47.341Z,28.7090
2022-12-20T01:19:58.618Z,28.6980
2022-12-20T01:20:09.835Z,28.7090
2022-12-20T01:20:21.015Z,28.7090
2022-12-20T01:20:32.139Z,28.7040
2022-12-20T01:20:43.375Z,28.6930
2022-12-20T01:20:54.615Z,28.7040
2022-12-20T01:21:05.799Z,28.7040
2022-12-20T01:21:17.013Z,28.6980
2022-12-20T01:21:28.184Z,28.6870
2022-12-20T01:21:39.403Z,28.6820
2022-12-20T01:21:50.580Z,28.6820
2022-12-20T01:22:01.804Z,28.6980
2022-12-20T01:22:12.982Z,28.6980
2022-12-20T01:22:24.210Z,28.6930
2022-12-20T01:22:35.388Z,28.6870
2022-12-20T01:22:47.773Z,28.6980
2022-12-20T01:22:59.116Z,28.7290
2022-12-20T01:23:10.287Z,28.7080
2022-12-20T01:23:21.465Z,28.7080
2022-12-20T01:23:32.680Z,28.6930
2022-12-20T01:23:43.741Z,28.6980
2022-12-20T01:23:54.821Z,28.6820
2022-12-20T01:24:05.940Z,28.6820
2022-12-20T01:24:17.153Z,28.6820
2022-12-20T01:24:28.230Z,28.6870
2022-12-20T01:24:39.335Z,28.6770
2022-12-20T01:24:50.420Z,28.6660
2022-12-20T01:25:01.478Z,28.6770
2022-12-20T01:25:12.567Z,28.6870
2022-12-20T01:25:23.629Z,28.6870
2022-12-20T01:25:36.903Z,28.7420
2022-12-20T01:25:48.065Z,28.7140
2022-12-20T01:25:59.224Z,28.7040
2022-12-20T01:26:10.303Z,28.6930
2022-12-20T01:26:21.380Z,28.6870
2022-12-20T01:26:32.523Z,28.6710
2022-12-20T01:26:43.710Z,28.6820
2022-12-20T01:26:54.922Z,28.6770
2022-12-20T01:27:06.145Z,28.6710
2022-12-20T01:27:17.238Z,28.6710
2022-12-20T01:27:28.430Z,28.6610
2022-12-20T01:27:39.511Z,28.6610
2022-12-20T01:27:50.575Z,28.6550
2022-12-20T01:28:01.644Z,28.6550
2022-12-20T01:28:12.722Z,28.6660
2022-12-20T01:28:23.918Z,28.6610
2022-12-20T01:28:35.111Z,28.6710
2022-12-20T01:28:46.310Z,28.6710
2022-12-20T01:28:57.394Z,28.6820
2022-12-20T01:29:08.437Z,28.6770
2022-12-20T01:29:19.595Z,28.6660
2022-12-20T01:29:30.785Z,28.6820
2022-12-20T01:29:41.946Z,28.6870
2022-12-20T01:29:53.169Z,28.6770
2022-12-20T01:30:04.229Z,28.6820
2022-12-20T01:30:15.450Z,28.6770
2022-12-20T01:30:26.518Z,28.6820
2022-12-20T01:30:37.576Z,28.6870
2022-12-20T01:30:48.725Z,28.6770
2022-12-20T01:30:59.954Z,28.6820
2022-12-20T01:31:11.175Z,28.6770
2022-12-20T01:31:22.395Z,28.6820
2022-12-20T01:31:33.562Z,28.6820
2022-12-20T01:31:44.789Z,28.6770
2022-12-20T01:31:55.957Z,28.6770
2022-12-20T01:32:07.341Z,28.6770
2022-12-20T01:32:18.761Z,28.6930
2022-12-20T01:32:29.846Z,28.6870
2022-12-20T01:32:41.036Z,28.6770
2022-12-20T01:32:52.069Z,28.6820
2022-12-20T01:33:03.128Z,28.6770
2022-12-20T01:33:14.334Z,28.6660
2022-12-20T01:33:25.513Z,28.6660
2022-12-20T01:33:36.715Z,28.6820
2022-12-20T01:33:47.924Z,28.6810
2022-12-20T01:33:58.999Z,28.6860
2022-12-20T01:34:10.044Z,28.6810
2022-12-20T01:34:21.220Z,28.6810
2022-12-20T01:34:32.386Z,28.6860
2022-12-20T01:34:43.607Z,28.6970
2022-12-20T01:34:54.813Z,28.7020
2022-12-20T01:35:05.874Z,28.6970
2022-12-20T01:35:16.931Z,28.6910
2022-12-20T01:35:28.081Z,28.6910
2022-12-20T01:35:39.273Z,28.6970
2022-12-20T01:35:50.435Z,28.6970
2022-12-20T01:36:01.509Z,28.6910
2022-12-20T01:36:12.705Z,28.6970
2022-12-20T01:36:23.899Z,28.6930
2022-12-20T01:36:34.963Z,28.6930
2022-12-20T01:36:46.033Z,28.6930
2022-12-20T01:36:57.104Z,28.6820
2022-12-20T01:37:08.152Z,28.6870
2022-12-20T01:37:19.287Z,28.6870
2022-12-20T01:37:30.442Z,28.6820
2022-12-20T01:37:41.509Z,28.6770
2022-12-20T01:37:52.579Z,28.6820
2022-12-20T01:38:03.741Z,28.6710
2022-12-20T01:38:14.969Z,28.6770
2022-12-20T01:38:26.142Z,28.6820
2022-12-20T01:38:37.347Z,28.6930
2022-12-20T01:38:48.542Z,28.6820
2022-12-20T01:38:59.766Z,28.6770
2022-12-20T01:39:10.811Z,28.6870
2022-12-20T01:39:21.903Z,28.6930
2022-12-20T01:39:33.130Z,28.6870
2022-12-20T01:39:44.311Z,28.6820
2022-12-20T01:39:55.483Z,28.6930
2022-12-20T01:40:06.544Z,28.6870
2022-12-20T01:40:17.626Z,28.6870
2022-12-20T01:40:28.795Z,28.6820
2022-12-20T01:40:40.014Z,28.6810
2022-12-20T01:40:51.191Z,28.6910
2022-12-20T01:41:02.412Z,28.6970
2022-12-20T01:41:13.470Z,28.6970
2022-12-20T01:41:24.540Z,28.6910
2022-12-20T01:41:35.685Z,28.7020
2022-12-20T01:41:46.902Z,28.6970
2022-12-20T01:41:57.951Z,28.6860
2022-12-20T01:42:09.023Z,28.6910
2022-12-20T01:42:20.084Z,28.6910
2022-12-20T01:42:31.182Z,28.6810
2022-12-20T01:42:42.235Z,28.6820
2022-12-20T01:42:53.434Z,28.6810
2022-12-20T01:43:04.637Z,28.6870
2022-12-20T01:43:15.694Z,28.6930
2022-12-20T01:43:26.831Z,28.6770
2022-12-20T01:43:37.912Z,28.6770
2022-12-20T01:43:49.116Z,28.6870
2022-12-20T01:44:00.183Z,28.6770
2022-12-20T01:44:11.254Z,28.6750
2022-12-20T01:44:22.413Z,28.6770
2022-12-20T01:44:33.486Z,28.6750
2022-12-20T01:44:44.576Z,28.6610
2022-12-20T01:44:55.716Z,28.6550
2022-12-20T01:45:06.887Z,28.6450
2022-12-20T01:45:18.065Z,28.6500
2022-12-20T01:45:29.321Z,28.6500
2022-12-20T01:45:40.420Z,28.6500
2022-12-20T01:45:51.536Z,28.6340
2022-12-20T01:46:02.642Z,28.6390
2022-12-20T01:46:13.846Z,28.6390
2022-12-20T01:46:25.112Z,28.6290
2022-12-20T01:46:36.406Z,28.6290
2022-12-20T01:46:47.564Z,28.6340
2022-12-20T01:46:58.621Z,28.6290
2022-12-20T01:47:09.688Z,28.6290
2022-12-20T01:47:20.752Z,28.6220
2022-12-20T01:47:31.845Z,28.6160
2022-12-20T01:47:43.053Z,28.6160
2022-12-20T01:47:54.116Z,28.6160
2022-12-20T01:48:05.196Z,28.6160
2022-12-20T01:48:16.315Z,28.6060
2022-12-20T01:48:27.376Z,28.6160
2022-12-20T01:48:38.471Z,28.6160
2022-12-20T01:48:49.544Z,28.6160
2022-12-20T01:49:00.634Z,28.6220
2022-12-20T01:49:11.696Z,28.6290
2022-12-20T01:49:22.756Z,28.6160
2022-12-20T01:49:33.930Z,28.6220
2022-12-20T01:49:45.126Z,28.6110
2022-12-20T01:49:56.196Z,28.6160
2022-12-20T01:50:07.289Z,28.6340
2022-12-20T01:50:18.426Z,28.6110
2022-12-20T01:50:29.487Z,28.6110
2022-12-20T01:50:40.567Z,28.6160
2022-12-20T01:50:51.673Z,28.6110
2022-12-20T01:51:02.896Z,28.6110
2022-12-20T01:51:14.085Z,28.5950
2022-12-20T01:51:25.285Z,28.6010
2022-12-20T01:51:36.350Z,28.6060
2022-12-20T01:51:47.414Z,28.6010
2022-12-20T01:51:58.578Z,28.5840
2022-12-20T01:52:09.642Z,28.5950
2022-12-20T01:52:20.723Z,28.5790
2022-12-20T01:52:31.847Z,28.5950
2022-12-20T01:52:42.910Z,28.5790
2022-12-20T01:52:54.005Z,28.5840
2022-12-20T01:53:05.121Z,28.5900
2022-12-20T01:53:16.328Z,28.5950
2022-12-20T01:53:27.542Z,28.5950
2022-12-20T01:53:38.816Z,28.5790
2022-12-20T01:53:49.977Z,28.5840
2022-12-20T01:54:01.135Z,28.5840
2022-12-20T01:54:12.214Z,28.5840
2022-12-20T01:54:23.325Z,28.5790
2022-12-20T01:54:34.486Z,28.5680
2022-12-20T01:54:45.644Z,28.5680
2022-12-20T01:54:56.758Z,28.5470
2022-12-20T01:55:07.878Z,28.5580
2022-12-20T01:55:18.962Z,28.5580
2022-12-20T01:55:30.085Z,28.5520
2022-12-20T01:55:41.280Z,28.5580
2022-12-20T01:55:52.485Z,28.5630
2022-12-20T01:56:03.684Z,28.5630
2022-12-20T01:56:14.881Z,28.5740
2022-12-20T01:56:26.082Z,28.5630
2022-12-20T01:56:37.283Z,28.5630
2022-12-20T01:56:48.483Z,28.5470
2022-12-20T01:56:59.560Z,28.5410
2022-12-20T01:57:10.623Z,28.5360
2022-12-20T01:57:21.766Z,28.5470
2022-12-20T01:57:32.965Z,28.5520
2022-12-20T01:57:44.163Z,28.5580
2022-12-20T01:57:55.365Z,28.5440
2022-12-20T01:58:06.571Z,28.5470
2022-12-20T01:58:17.764Z,28.5580
2022-12-20T01:58:28.959Z,28.5410
2022-12-20T01:58:40.159Z,28.5360
2022-12-20T01:58:51.365Z,28.5410
2022-12-20T01:59:02.448Z,28.5300
2022-12-20T01:59:13.544Z,28.5190
2022-12-20T01:59:24.648Z,28.5240
2022-12-20T01:59:35.849Z,28.5130
2022-12-20T01:59:47.044Z,28.5030
2022-12-20T01:59:58.152Z,28.4920
2022-12-20T02:00:09.222Z,28.4870
2022-12-20T02:00:20.319Z,28.4760
2022-12-20T02:00:31.535Z,28.4650
2022-12-20T02:00:42.761Z,28.4710
2022-12-20T02:00:53.904Z,28.4760
2022-12-20T02:01:05.181Z,28.4920
2022-12-20T02:01:16.392Z,28.4920
2022-12-20T02:01:27.627Z,28.4810
2022-12-20T02:01:38.868Z,28.4870
2022-12-20T02:01:50.136Z,28.4680
2022-12-20T02:02:01.667Z,28.4800
2022-12-20T02:02:13.248Z,28.5010
2022-12-20T02:02:24.679Z,28.5010
2022-12-20T02:02:35.996Z,28.4960
2022-12-20T02:02:47.397Z,28.5120
2022-12-20T02:02:58.693Z,28.5010
2022-12-20T02:03:10.150Z,28.5010
2022-12-20T02:03:21.568Z,28.5010
2022-12-20T02:03:32.774Z,28.4850
2022-12-20T02:03:43.917Z,28.4680
2022-12-20T02:03:55.003Z,28.4750
2022-12-20T02:04:06.255Z,28.4680
2022-12-20T02:04:17.445Z,28.4630
2022-12-20T02:04:28.510Z,28.4680
2022-12-20T02:04:39.608Z,28.4630
2022-12-20T02:04:50.729Z,28.4630
2022-12-20T02:05:01.864Z,28.4630
2022-12-20T02:05:12.973Z,28.4410
2022-12-20T02:05:24.063Z,28.4410
2022-12-20T02:05:35.200Z,28.4150
2022-12-20T02:05:46.315Z,28.4090
2022-12-20T02:05:57.389Z,28.4150
2022-12-20T02:06:08.624Z,28.4040
2022-12-20T02:06:19.824Z,28.3980
2022-12-20T02:06:30.873Z,28.3980
2022-12-20T02:06:41.969Z,28.4090
2022-12-20T02:06:53.110Z,28.4090
2022-12-20T02:07:04.171Z,28.3930
2022-12-20T02:07:15.251Z,28.3930
2022-12-20T02:07:26.362Z,28.3830
2022-12-20T02:07:37.424Z,28.3760
2022-12-20T02:07:48.491Z,28.3710
2022-12-20T02:07:59.666Z,28.3760
2022-12-20T02:08:10.886Z,28.3490
2022-12-20T02:08:22.078Z,28.3540
2022-12-20T02:08:33.274Z,28.3650
2022-12-20T02:08:44.315Z,28.3600
2022-12-20T02:08:55.385Z,28.3650
2022-12-20T02:09:06.449Z,28.3600
2022-12-20T02:09:17.512Z,28.3600
2022-12-20T02:09:28.627Z,28.3600
2022-12-20T02:09:39.727Z,28.3600
2022-12-20T02:09:50.772Z,28.3600
2022-12-20T02:10:01.911Z,28.3540
2022-12-20T02:10:13.006Z,28.3450
2022-12-20T02:10:24.087Z,28.3570
2022-12-20T02:10:35.173Z,28.3400
2022-12-20T02:10:46.356Z,28.3450
2022-12-20T02:10:57.557Z,28.3290
2022-12-20T02:11:08.628Z,28.3380
2022-12-20T02:11:19.702Z,28.3330
2022-12-20T02:11:30.765Z,28.3440
2022-12-20T02:11:41.861Z,28.3440
2022-12-20T02:11:52.941Z,28.3220
2022-12-20T02:12:04.020Z,28.3330
2022-12-20T02:12:15.148Z,28.3380
2022-12-20T02:12:26.255Z,28.3380
2022-12-20T02:12:37.313Z,28.3330
2022-12-20T02:12:48.368Z,28.3330
2022-12-20T02:12:59.480Z,28.3330
2022-12-20T02:13:10.682Z,28.3330
2022-12-20T02:13:21.753Z,28.3180
2022-12-20T02:13:32.835Z,28.3060
2022-12-20T02:13:43.856Z,28.3060
2022-12-20T02:13:54.928Z,28.3010
2022-12-20T02:14:06.038Z,28.2960
2022-12-20T02:14:17.077Z,28.3010
2022-12-20T02:14:28.179Z,28.3010
2022-12-20T02:14:39.315Z,28.2900
2022-12-20T02:14:50.357Z,28.2840
2022-12-20T02:15:01.428Z,28.2780